KHIF

Hill AFB Airport

Ogden, Utah, USA
METAR KHIF 201558Z 13010KT 10SM SCT140 SCT200 24/03 A3004 RMK AO2A SLP114 T02440031
Observed Flight Rules
Aug-20 @ 15:58 UTC (25 minutes ago) Visual Flight Rules
Wind Visibility Clouds
130° at 10 knots 10 miles
  • Scattered at 14,000' AGL
  • Scattered at 20,000' AGL
Temperatures Readings
Current 24°C / 75°F
Dewpoint 3°C / 37°F
Humidity 25%
Altimeter 30.04" Hg
Pressure 1011.4 hPa
Elevation 1459
METAR KHIF 201558Z 13010KT 10SM SCT140 SCT200 24/03 A3004 RMK AO2A SLP114 T02440031
Observed Flight Rules
Aug-20 @ 15:58 UTC
(25 minutes ago)
VFR
Wind Visibility
130° at 10 knots 10 miles
Clouds
  • Scattered at 14,000' AGL
  • Scattered at 20,000' AGL
Temperature Dewpoint
24°C / 75°F 3°C / 37°F
Humidity Altimeter Pressure
25% 30.04" Hg 1011.4 hPa